Time;durP1;ratioP1;P1;durP2;ratioP2;P2;SDS_P1;SDS_P2;PMS_P1;PMS_P2;Temp;Humidity;BMP_temperature;BMP_pressure;BME280_temperature;BME280_humidity;BME280_pressure;Samples;Min_cycle;Max_cycle;Signal;HPM_P1;HPM_P2
2023/12/30 00:01:28;;;;;;;12.60;2.40;;;9.60;99.90;;;;;;6279670;22;20177;-82
2023/12/30 00:03:54;;;;;;;12.73;3.60;;;9.60;99.90;;;;;;6279379;22;20157;-81
2023/12/30 00:06:19;;;;;;;12.63;2.80;;;9.70;99.90;;;;;;6280344;22;20169;-81
2023/12/30 00:08:45;;;;;;;5.07;2.20;;;9.70;99.90;;;;;;6281325;22;20494;-81
2023/12/30 00:11:11;;;;;;;9.33;2.30;;;9.70;99.90;;;;;;6278427;22;20179;-80
2023/12/30 00:13:39;;;;;;;21.17;2.83;;;9.70;99.90;;;;;;6279983;22;20533;-80
2023/12/30 00:16:05;;;;;;;7.67;2.90;;;9.70;99.90;;;;;;6280536;22;20600;-80
2023/12/30 00:18:31;;;;;;;14.43;3.33;;;9.70;99.90;;;;;;6252898;22;20391;-81
2023/12/30 00:20:57;;;;;;;11.03;3.30;;;9.70;99.90;;;;;;6279464;22;20407;-81
2023/12/30 00:23:23;;;;;;;7.50;2.67;;;9.70;99.90;;;;;;6279930;22;20224;-81
2023/12/30 00:25:48;;;;;;;8.57;2.87;;;9.70;99.90;;;;;;6280410;22;20926;-80
2023/12/30 00:28:14;;;;;;;18.17;3.40;;;9.70;99.90;;;;;;6278819;22;20173;-81
2023/12/30 00:30:39;;;;;;;14.17;2.43;;;9.70;99.90;;;;;;6279877;22;20195;-82
2023/12/30 00:33:05;;;;;;;20.47;2.90;;;9.70;99.90;;;;;;6252761;22;20214;-81
2023/12/30 00:35:30;;;;;;;15.60;2.57;;;9.70;99.90;;;;;;6277273;22;20244;-81
2023/12/30 00:37:56;;;;;;;13.80;3.17;;;9.70;99.90;;;;;;6280053;22;20153;-81
2023/12/30 00:40:22;;;;;;;12.80;3.43;;;9.80;99.90;;;;;;6279139;22;20228;-82
2023/12/30 00:42:47;;;;;;;8.23;2.50;;;9.70;99.90;;;;;;6279025;22;20204;-81
2023/12/30 00:45:13;;;;;;;12.97;2.60;;;9.80;99.90;;;;;;6278041;22;20227;-81
2023/12/30 00:47:38;;;;;;;16.53;3.17;;;9.80;99.90;;;;;;6278454;22;20172;-81
2023/12/30 00:50:04;;;;;;;8.50;2.87;;;9.80;99.90;;;;;;6278402;22;20210;-83
2023/12/30 00:52:30;;;;;;;11.40;2.87;;;9.80;99.90;;;;;;6278040;22;20233;-81
2023/12/30 00:54:55;;;;;;;12.07;2.83;;;9.80;99.90;;;;;;6251787;22;20153;-82
2023/12/30 00:57:21;;;;;;;14.60;3.00;;;9.80;99.90;;;;;;6276835;22;20177;-81
2023/12/30 00:59:46;;;;;;;10.80;2.93;;;9.80;99.90;;;;;;6252270;22;20685;-82
2023/12/30 01:02:12;;;;;;;7.53;2.33;;;9.70;99.90;;;;;;6278148;22;20169;-81
2023/12/30 01:04:37;;;;;;;13.30;2.77;;;9.80;99.90;;;;;;6279323;22;20160;-81
2023/12/30 01:07:03;;;;;;;17.87;3.10;;;9.80;99.90;;;;;;6278886;22;20522;-81
2023/12/30 01:09:28;;;;;;;7.53;2.30;;;9.80;99.90;;;;;;6279304;22;20154;-81
2023/12/30 01:11:54;;;;;;;16.53;2.73;;;9.70;99.90;;;;;;6260494;22;20184;-81
2023/12/30 01:14:19;;;;;;;14.67;2.37;;;9.70;99.90;;;;;;6276090;22;20156;-82
2023/12/30 01:16:45;;;;;;;14.40;2.67;;;9.70;99.90;;;;;;6279038;22;20179;-82
2023/12/30 01:19:12;;;;;;;17.60;3.07;;;9.60;99.90;;;;;;6276279;22;20156;-81
2023/12/30 01:21:37;;;;;;;17.77;2.77;;;9.60;99.90;;;;;;6278225;22;20169;-81
2023/12/30 01:24:03;;;;;;;16.30;2.90;;;9.60;99.90;;;;;;6279505;22;20390;-81
2023/12/30 01:26:28;;;;;;;13.43;3.23;;;9.50;99.90;;;;;;6280065;22;20232;-83
2023/12/30 01:28:54;;;;;;;17.70;2.87;;;9.50;99.90;;;;;;6279537;22;20148;-82
2023/12/30 01:31:19;;;;;;;10.07;2.80;;;9.50;99.90;;;;;;6279364;22;20620;-81
2023/12/30 01:33:45;;;;;;;11.67;2.57;;;9.40;99.90;;;;;;6277103;22;20218;-82
2023/12/30 01:36:12;;;;;;;13.80;3.47;;;9.40;99.90;;;;;;6279346;22;20184;-82
2023/12/30 01:38:38;;;;;;;9.37;2.50;;;9.40;99.90;;;;;;6279716;22;20497;-82
2023/12/30 01:41:03;;;;;;;19.33;3.43;;;9.40;99.90;;;;;;6280521;22;20367;-82
2023/12/30 01:43:30;;;;;;;14.77;2.80;;;9.40;99.90;;;;;;6280660;22;20149;-82
2023/12/30 01:46:01;;;;;;;14.30;2.60;;;9.40;99.90;;;;;;6280668;22;20179;-81
2023/12/30 01:48:27;;;;;;;9.37;3.50;;;9.40;99.90;;;;;;6280684;22;20408;-81
2023/12/30 01:50:57;;;;;;;13.50;2.20;;;9.40;99.90;;;;;;6276425;22;20453;-81
2023/12/30 01:53:24;;;;;;;9.97;2.90;;;9.40;99.90;;;;;;6279015;22;20408;-82
2023/12/30 01:55:50;;;;;;;16.47;2.20;;;9.40;99.90;;;;;;6280470;22;20375;-82
2023/12/30 01:58:20;;;;;;;8.97;2.20;;;9.40;99.90;;;;;;6279800;22;20410;-82
2023/12/30 02:00:51;;;;;;;9.27;4.33;;;9.40;99.90;;;;;;6278204;22;20453;-81
2023/12/30 02:03:17;;;;;;;8.47;2.60;;;9.40;99.90;;;;;;6279949;22;20384;-82
2023/12/30 02:05:43;;;;;;;11.13;3.27;;;9.50;99.90;;;;;;6279801;22;20399;-82
2023/12/30 02:08:09;;;;;;;8.20;2.60;;;9.50;99.90;;;;;;6275404;22;20453;-82
2023/12/30 02:10:35;;;;;;;7.37;2.33;;;9.50;1.00;;;;;;6275728;22;20383;-81
2023/12/30 02:13:00;;;;;;;13.10;2.57;;;9.50;1.00;;;;;;6277337;22;20888;-81
2023/12/30 02:15:26;;;;;;;7.27;2.50;;;9.60;1.00;;;;;;6251177;22;20156;-81
2023/12/30 02:17:55;;;;;;;12.73;2.50;;;9.60;99.90;;;;;;6251427;22;20181;-82
2023/12/30 02:20:20;;;;;;;21.30;3.07;;;9.60;1.00;;;;;;6278928;22;20499;-82
2023/12/30 02:22:47;;;;;;;9.90;2.63;;;9.70;1.00;;;;;;6278577;22;20490;-82
2023/12/30 02:25:15;;;;;;;9.87;3.00;;;9.60;1.00;;;;;;6278790;22;20145;-82
2023/12/30 02:27:43;;;;;;;12.23;3.47;;;9.70;1.00;;;;;;6276348;22;20438;-82
2023/12/30 02:30:09;;;;;;;8.47;3.50;;;9.70;99.90;;;;;;6250463;22;20391;-81
2023/12/30 02:32:35;;;;;;;13.80;2.13;;;9.70;99.90;;;;;;6249672;22;20501;-82
2023/12/30 02:35:00;;;;;;;12.23;2.70;;;9.60;99.90;;;;;;6277969;22;20375;-82
2023/12/30 02:37:26;;;;;;;9.00;2.90;;;9.60;99.90;;;;;;6276938;22;20172;-82
2023/12/30 02:39:51;;;;;;;10.80;3.90;;;9.70;99.90;;;;;;6278464;22;20206;-82
2023/12/30 02:42:17;;;;;;;20.60;3.13;;;9.70;99.90;;;;;;6279003;22;20737;-81
2023/12/30 02:44:42;;;;;;;17.03;2.67;;;9.70;99.90;;;;;;6276841;22;20238;-82
2023/12/30 02:47:08;;;;;;;9.27;2.20;;;9.60;99.90;;;;;;6277284;22;20149;-82
2023/12/30 02:49:34;;;;;;;10.40;2.70;;;9.60;99.90;;;;;;6276551;22;20566;-82
2023/12/30 02:52:00;;;;;;;15.50;2.77;;;9.60;99.90;;;;;;6276435;22;20172;-82
2023/12/30 02:54:27;;;;;;;6.70;1.93;;;9.60;99.90;;;;;;6276950;22;20396;-83
2023/12/30 02:56:52;;;;;;;16.40;2.77;;;9.50;99.90;;;;;;6278510;22;20411;-82
2023/12/30 02:59:17;;;;;;;13.60;2.40;;;9.50;99.90;;;;;;6280218;22;20378;-83
2023/12/30 03:01:43;;;;;;;8.70;3.53;;;9.40;99.90;;;;;;6280127;22;20537;-82
2023/12/30 03:04:09;;;;;;;16.93;3.30;;;9.40;99.90;;;;;;6279914;22;20198;-82
2023/12/30 03:06:34;;;;;;;17.13;2.47;;;9.30;99.90;;;;;;6281270;22;20149;-81
2023/12/30 03:09:01;;;;;;;13.83;2.73;;;9.30;99.90;;;;;;6280726;22;20575;-82
2023/12/30 03:11:26;;;;;;;11.80;2.50;;;9.30;99.90;;;;;;6281894;22;20415;-82
2023/12/30 03:13:52;;;;;;;17.90;4.13;;;9.30;99.90;;;;;;6281561;22;20569;-83
2023/12/30 03:16:19;;;;;;;13.80;2.60;;;9.30;99.90;;;;;;6281157;22;20161;-83
2023/12/30 03:18:46;;;;;;;10.10;2.67;;;9.30;1.00;;;;;;6280577;22;20153;-82
2023/12/30 03:21:14;;;;;;;12.03;3.10;;;9.30;1.00;;;;;;6277839;22;20467;-81
2023/12/30 03:23:40;;;;;;;7.50;2.23;;;9.40;1.00;;;;;;6280863;22;20391;-81
2023/12/30 03:26:10;;;;;;;9.47;3.10;;;9.40;99.90;;;;;;6279977;22;20368;-82
2023/12/30 03:28:36;;;;;;;13.47;2.50;;;9.40;99.90;;;;;;6281096;22;20430;-81
2023/12/30 03:31:02;;;;;;;15.03;2.80;;;9.30;99.90;;;;;;6253680;22;20387;-82
2023/12/30 03:33:28;;;;;;;9.63;2.20;;;9.30;99.90;;;;;;6281137;22;20716;-82
2023/12/30 03:35:54;;;;;;;16.20;3.37;;;9.40;99.90;;;;;;6280305;22;20454;-82
2023/12/30 03:38:20;;;;;;;10.63;2.67;;;9.40;1.00;;;;;;6278887;22;20176;-81
2023/12/30 03:40:45;;;;;;;9.90;2.57;;;9.40;1.00;;;;;;6279062;22;20375;-81
2023/12/30 03:43:13;;;;;;;7.53;2.07;;;9.40;1.00;;;;;;6279661;22;21230;-81
2023/12/30 03:45:38;;;;;;;12.43;2.63;;;9.40;1.00;;;;;;6252136;22;20240;-81
2023/12/30 03:48:04;;;;;;;12.93;2.43;;;9.40;1.00;;;;;;6279322;22;20383;-82
2023/12/30 03:50:30;;;;;;;14.70;2.27;;;9.40;1.00;;;;;;6279300;22;20210;-82
2023/12/30 03:52:55;;;;;;;11.23;4.37;;;9.40;1.00;;;;;;6277703;22;20879;-80
2023/12/30 03:55:20;;;;;;;9.77;2.50;;;9.40;1.00;;;;;;6278256;22;20617;-81
2023/12/30 03:57:46;;;;;;;15.33;4.63;;;9.30;1.00;;;;;;6278575;22;20702;-82
2023/12/30 04:00:12;;;;;;;13.77;3.00;;;9.30;1.00;;;;;;6279081;22;20153;-82
2023/12/30 04:02:37;;;;;;;8.40;2.30;;;9.20;1.00;;;;;;6278212;22;20172;-82
2023/12/30 04:05:04;;;;;;;12.53;2.90;;;9.20;1.00;;;;;;6278755;22;20382;-82
2023/12/30 04:07:29;;;;;;;16.23;3.30;;;9.10;1.00;;;;;;6279340;22;20152;-82
2023/12/30 04:09:55;;;;;;;14.77;3.57;;;9.10;1.00;;;;;;6279320;22;20375;-82
2023/12/30 04:12:20;;;;;;;17.60;3.87;;;9.10;1.00;;;;;;6281324;22;20239;-88
2023/12/30 04:14:47;;;;;;;9.60;2.53;;;9.10;1.00;;;;;;6285564;22;20153;-85
2023/12/30 04:17:12;;;;;;;12.40;3.93;;;9.20;1.00;;;;;;6288501;22;20187;-86
2023/12/30 04:19:38;;;;;;;11.63;2.70;;;9.20;1.00;;;;;;6288486;22;20375;-87
2023/12/30 04:22:04;;;;;;;10.23;2.57;;;9.20;1.00;;;;;;6288412;22;20517;-87
2023/12/30 04:24:29;;;;;;;14.33;3.47;;;9.20;1.00;;;;;;6287653;22;20157;-84
2023/12/30 04:26:55;;;;;;;7.47;2.80;;;9.20;1.00;;;;;;6289896;22;20183;-85
2023/12/30 04:29:20;;;;;;;11.57;2.70;;;9.20;1.00;;;;;;6289889;22;20149;-86
2023/12/30 04:31:46;;;;;;;14.00;2.40;;;9.20;1.00;;;;;;6289753;22;20200;-87
2023/12/30 04:34:11;;;;;;;14.33;3.40;;;9.20;1.00;;;;;;6288515;22;20206;-86
2023/12/30 04:36:37;;;;;;;14.50;3.53;;;9.20;1.00;;;;;;6289572;22;20246;-86
2023/12/30 04:39:02;;;;;;;9.43;3.10;;;9.10;1.00;;;;;;6290203;22;20633;-88
2023/12/30 04:41:28;;;;;;;8.87;3.43;;;9.10;1.00;;;;;;6290689;22;20201;-87
2023/12/30 04:43:54;;;;;;;19.97;2.87;;;9.10;1.00;;;;;;6291402;22;20153;-85
2023/12/30 04:46:20;;;;;;;15.03;3.20;;;9.10;1.00;;;;;;6290047;22;20145;-84
2023/12/30 04:48:45;;;;;;;11.00;3.63;;;9.10;1.00;;;;;;6282888;22;20375;-85
2023/12/30 04:51:11;;;;;;;12.07;2.60;;;9.10;1.00;;;;;;6282891;22;20156;-85
2023/12/30 04:53:36;;;;;;;11.47;2.60;;;9.00;1.00;;;;;;6282314;22;20145;-87
2023/12/30 04:56:02;;;;;;;20.43;2.83;;;9.00;1.00;;;;;;6280629;22;20206;-85
2023/12/30 04:58:28;;;;;;;12.17;3.47;;;9.00;1.00;;;;;;6281769;22;20636;-86
2023/12/30 05:00:54;;;;;;;9.90;3.23;;;9.00;1.00;;;;;;6283448;22;20390;-85
2023/12/30 05:03:19;;;;;;;17.53;3.57;;;9.00;1.00;;;;;;6283262;22;20191;-86
2023/12/30 05:05:44;;;;;;;12.07;3.30;;;9.00;1.00;;;;;;6282838;22;20163;-85
2023/12/30 05:08:10;;;;;;;14.03;2.83;;;9.00;1.00;;;;;;6284422;22;20207;-87
2023/12/30 05:10:36;;;;;;;14.83;2.50;;;9.00;1.00;;;;;;6283105;22;20148;-85
2023/12/30 05:13:01;;;;;;;8.23;2.67;;;9.00;1.00;;;;;;6283220;22;20212;-85
2023/12/30 05:15:27;;;;;;;18.03;3.40;;;9.00;1.00;;;;;;6284638;22;20153;-85
2023/12/30 05:17:55;;;;;;;13.90;3.13;;;9.00;1.00;;;;;;6283861;22;20620;-85
2023/12/30 05:20:21;;;;;;;10.03;2.90;;;9.00;1.00;;;;;;6284332;22;20176;-85
2023/12/30 05:22:46;;;;;;;13.23;3.17;;;8.90;1.00;;;;;;6282954;22;20388;-86
2023/12/30 05:25:12;;;;;;;9.93;2.33;;;8.90;1.00;;;;;;6281878;22;20161;-85
2023/12/30 05:27:38;;;;;;;8.77;2.90;;;8.90;1.00;;;;;;6282830;22;20156;-84
2023/12/30 05:30:07;;;;;;;7.40;3.03;;;8.90;1.00;;;;;;6282450;22;20375;-85
2023/12/30 05:32:33;;;;;;;12.20;2.67;;;8.90;1.00;;;;;;6281524;22;20173;-86
2023/12/30 05:34:59;;;;;;;9.63;2.67;;;8.90;1.00;;;;;;6255415;22;20459;-85
2023/12/30 05:37:24;;;;;;;12.37;2.30;;;8.80;1.00;;;;;;6284092;22;20177;-85
2023/12/30 05:39:50;;;;;;;14.83;3.17;;;8.80;1.00;;;;;;6283150;22;20800;-84
2023/12/30 05:42:15;;;;;;;15.90;2.80;;;8.80;1.00;;;;;;6255630;22;20172;-86
2023/12/30 05:44:41;;;;;;;13.03;3.47;;;8.80;1.00;;;;;;6282865;22;20152;-84
2023/12/30 05:47:06;;;;;;;16.37;2.90;;;8.80;1.00;;;;;;6281897;22;20156;-85
2023/12/30 05:49:33;;;;;;;17.20;2.87;;;8.80;1.00;;;;;;6283031;22;20149;-85
2023/12/30 05:51:58;;;;;;;12.80;3.00;;;8.80;1.00;;;;;;6282413;22;20677;-85
2023/12/30 05:54:26;;;;;;;15.53;3.60;;;8.80;1.00;;;;;;6283494;22;20382;-87
2023/12/30 05:56:53;;;;;;;19.37;2.67;;;8.80;1.00;;;;;;6283062;22;20267;-85
2023/12/30 05:59:18;;;;;;;18.33;3.77;;;8.80;1.00;;;;;;6283807;22;20489;-86
2023/12/30 06:01:45;;;;;;;8.47;2.50;;;8.80;1.00;;;;;;6283131;22;20388;-86
2023/12/30 06:04:11;;;;;;;11.30;2.83;;;8.80;1.00;;;;;;6282293;22;20148;-85
2023/12/30 06:06:37;;;;;;;15.50;3.30;;;8.80;1.00;;;;;;6283285;22;20376;-86
2023/12/30 06:09:02;;;;;;;7.70;2.53;;;8.80;1.00;;;;;;6285433;22;20410;-85
2023/12/30 06:11:28;;;;;;;12.77;2.23;;;8.80;1.00;;;;;;6284688;22;20157;-85
2023/12/30 06:13:54;;;;;;;14.03;3.03;;;8.80;1.00;;;;;;6284714;22;20638;-85
2023/12/30 06:16:20;;;;;;;11.87;2.53;;;8.90;1.00;;;;;;6257948;22;20387;-85
2023/12/30 06:18:45;;;;;;;14.00;3.23;;;8.90;1.00;;;;;;6258111;22;20163;-84
2023/12/30 06:21:11;;;;;;;17.80;2.87;;;9.00;1.00;;;;;;6285247;22;20202;-84
2023/12/30 06:23:36;;;;;;;13.93;3.20;;;9.00;1.00;;;;;;6284251;22;20171;-85
2023/12/30 06:26:02;;;;;;;12.50;2.83;;;9.00;1.00;;;;;;6284553;22;20518;-85
2023/12/30 06:28:28;;;;;;;11.63;2.40;;;9.00;1.00;;;;;;6284640;22;20149;-86
2023/12/30 06:30:53;;;;;;;10.00;3.00;;;9.00;1.00;;;;;;6284813;22;20551;-85
2023/12/30 06:33:21;;;;;;;8.50;3.17;;;9.00;1.00;;;;;;6286730;22;20235;-86
2023/12/30 06:35:46;;;;;;;8.53;2.30;;;9.00;1.00;;;;;;6286694;22;20165;-86
2023/12/30 06:38:14;;;;;;;13.77;2.73;;;9.00;1.00;;;;;;6288497;22;20825;-85
2023/12/30 06:40:41;;;;;;;13.47;3.07;;;9.00;1.00;;;;;;6289587;22;20168;-86
2023/12/30 06:43:07;;;;;;;12.47;3.67;;;9.00;1.00;;;;;;6285354;22;20392;-85
2023/12/30 06:45:33;;;;;;;10.93;2.53;;;8.90;1.00;;;;;;6286962;22;20395;-85
2023/12/30 06:47:58;;;;;;;18.37;3.73;;;8.90;1.00;;;;;;6287310;22;20391;-85
2023/12/30 06:50:24;;;;;;;17.80;3.03;;;8.80;1.00;;;;;;6286592;22;20210;-86
2023/12/30 06:52:50;;;;;;;12.23;2.07;;;8.80;1.00;;;;;;6289204;22;20173;-85
2023/12/30 06:55:15;;;;;;;20.27;3.03;;;8.70;1.00;;;;;;6289649;22;20145;-87
2023/12/30 06:57:41;;;;;;;16.10;3.30;;;8.70;1.00;;;;;;6288576;22;20176;-85
2023/12/30 07:00:07;;;;;;;19.97;3.70;;;8.60;1.00;;;;;;6289883;22;20160;-85
2023/12/30 07:02:36;;;;;;;15.57;3.43;;;8.60;1.00;;;;;;6289334;22;20392;-85
2023/12/30 07:05:02;;;;;;;12.33;3.90;;;8.60;1.00;;;;;;6261074;22;20392;-89
2023/12/30 07:07:27;;;;;;;8.90;2.50;;;8.60;1.00;;;;;;6286669;22;20376;-86
2023/12/30 07:09:53;;;;;;;16.20;3.70;;;8.60;1.00;;;;;;6287846;22;20237;-85
2023/12/30 07:12:19;;;;;;;14.77;4.30;;;8.60;1.00;;;;;;6265551;22;20196;-85
2023/12/30 07:14:44;;;;;;;14.03;5.10;;;8.70;1.00;;;;;;6284260;22;20152;-86
2023/12/30 07:17:10;;;;;;;9.20;2.70;;;8.70;1.00;;;;;;6280433;22;20208;-85
2023/12/30 07:19:35;;;;;;;15.83;3.10;;;8.70;1.00;;;;;;6282302;22;20557;-84
2023/12/30 07:22:01;;;;;;;12.70;3.10;;;8.80;1.00;;;;;;6281303;22;20629;-87
2023/12/30 07:24:26;;;;;;;11.93;3.90;;;8.80;1.00;;;;;;6280863;22;20153;-85
2023/12/30 07:26:52;;;;;;;14.67;3.20;;;8.90;1.00;;;;;;6281318;22;20156;-85
2023/12/30 07:29:17;;;;;;;10.57;3.20;;;8.90;1.00;;;;;;6282472;22;20666;-85
2023/12/30 07:31:43;;;;;;;13.47;3.30;;;8.90;1.00;;;;;;6283027;22;20226;-88
2023/12/30 07:34:08;;;;;;;9.60;2.77;;;8.90;1.00;;;;;;6280444;22;20184;-84
2023/12/30 07:36:34;;;;;;;15.70;3.70;;;9.00;1.00;;;;;;6281125;22;20636;-84
2023/12/30 07:39:00;;;;;;;16.93;4.30;;;9.10;1.00;;;;;;6280521;22;20184;-84
2023/12/30 07:41:25;;;;;;;10.90;3.53;;;9.10;1.00;;;;;;6280214;22;20378;-84
2023/12/30 07:43:51;;;;;;;19.17;3.60;;;9.10;1.00;;;;;;6280479;22;20278;-84
2023/12/30 07:46:16;;;;;;;16.33;4.27;;;9.20;1.00;;;;;;6281148;22;20234;-85
2023/12/30 07:48:43;;;;;;;15.13;3.50;;;9.20;1.00;;;;;;6280011;22;20282;-84
2023/12/30 07:51:08;;;;;;;16.87;3.30;;;9.20;1.00;;;;;;6278492;22;20510;-85
2023/12/30 07:53:34;;;;;;;9.00;2.83;;;9.20;1.00;;;;;;6281049;22;20387;-85
2023/12/30 07:55:59;;;;;;;11.43;3.83;;;9.20;1.00;;;;;;6282431;22;20150;-85
2023/12/30 07:58:25;;;;;;;13.37;3.60;;;9.20;1.00;;;;;;6284867;22;20172;-84
2023/12/30 08:00:51;;;;;;;9.60;3.10;;;9.20;1.00;;;;;;6282155;22;20207;-84
2023/12/30 08:03:16;;;;;;;11.83;3.23;;;9.20;1.00;;;;;;6282771;22;20175;-85
2023/12/30 08:05:42;;;;;;;15.30;3.57;;;9.20;1.00;;;;;;6280506;22;20563;-84
2023/12/30 08:08:12;;;;;;;17.50;4.37;;;9.20;1.00;;;;;;6280958;22;20228;-85
2023/12/30 08:10:37;;;;;;;14.57;3.23;;;9.30;1.00;;;;;;6279103;22;20145;-84
2023/12/30 08:13:03;;;;;;;16.43;2.67;;;9.30;99.90;;;;;;6280658;22;20458;-85
2023/12/30 08:15:29;;;;;;;9.10;3.20;;;9.30;99.90;;;;;;6282106;22;20219;-86
2023/12/30 08:17:54;;;;;;;14.83;3.40;;;9.40;99.90;;;;;;6281697;22;20415;-85
2023/12/30 08:20:20;;;;;;;13.73;3.10;;;9.30;99.90;;;;;;6281238;22;20228;-84
2023/12/30 08:22:45;;;;;;;10.40;3.53;;;9.40;99.90;;;;;;6252932;22;20236;-86
2023/12/30 08:25:12;;;;;;;13.77;4.13;;;9.40;99.90;;;;;;6280947;22;20232;-85
2023/12/30 08:27:40;;;;;;;18.77;4.20;;;9.40;99.90;;;;;;6253701;22;20183;-86
2023/12/30 08:30:06;;;;;;;16.50;3.40;;;9.50;99.90;;;;;;6281000;22;21029;-84
2023/12/30 08:32:32;;;;;;;14.20;3.70;;;9.50;99.90;;;;;;6253781;22;20407;-84
2023/12/30 08:34:57;;;;;;;12.83;3.57;;;9.60;99.90;;;;;;6281467;22;20696;-85
2023/12/30 08:37:23;;;;;;;18.10;4.07;;;9.60;99.90;;;;;;6281363;22;20184;-86
2023/12/30 08:39:49;;;;;;;13.63;5.37;;;9.60;99.90;;;;;;6279160;22;20179;-85
2023/12/30 08:42:15;;;;;;;19.10;3.27;;;9.70;99.90;;;;;;6282035;22;20392;-84
2023/12/30 08:44:43;;;;;;;11.23;3.40;;;9.70;99.90;;;;;;6279736;22;20367;-86
2023/12/30 08:47:09;;;;;;;13.60;3.70;;;9.70;99.90;;;;;;6253692;22;20191;-86
2023/12/30 08:49:35;;;;;;;14.07;4.17;;;9.80;90.00;;;;;;6280403;22;20710;-84
2023/12/30 08:52:01;;;;;;;6.40;3.20;;;9.80;41.20;;;;;;6279337;22;20435;-86
2023/12/30 08:54:27;;;;;;;9.83;3.27;;;9.90;1.00;;;;;;6280588;22;20788;-86
2023/12/30 08:56:53;;;;;;;14.10;3.43;;;10.00;1.00;;;;;;6280514;22;20458;-85
2023/12/30 08:59:20;;;;;;;17.40;5.67;;;10.10;1.00;;;;;;6280530;22;20145;-85
2023/12/30 09:01:45;;;;;;;12.40;3.20;;;10.20;99.90;;;;;;6281973;22;20410;-86
2023/12/30 09:04:11;;;;;;;8.40;3.20;;;10.30;48.00;;;;;;6275754;22;20500;-85
2023/12/30 09:06:36;;;;;;;9.17;3.10;;;10.40;99.90;;;;;;6277528;22;20153;-86
2023/12/30 09:09:04;;;;;;;9.67;3.30;;;10.50;1.00;;;;;;6279297;22;20176;-85
2023/12/30 09:11:30;;;;;;;14.73;4.10;;;10.60;99.90;;;;;;6253559;22;20156;-85
2023/12/30 09:13:55;;;;;;;12.20;3.57;;;10.70;1.00;;;;;;6277505;22;20387;-85
2023/12/30 09:16:21;;;;;;;10.50;3.17;;;10.70;1.00;;;;;;6252246;22;20724;-85
2023/12/30 09:18:46;;;;;;;13.97;3.73;;;10.80;1.00;;;;;;6280794;22;20198;-84
2023/12/30 09:21:12;;;;;;;12.20;3.00;;;10.90;99.90;;;;;;6280649;22;20141;-85
2023/12/30 09:23:38;;;;;;;6.57;2.80;;;10.90;1.00;;;;;;6278773;22;20184;-85
2023/12/30 09:26:04;;;;;;;11.37;3.23;;;11.00;1.00;;;;;;6257157;22;20380;-85
2023/12/30 09:28:30;;;;;;;17.97;3.70;;;11.00;1.00;;;;;;6254371;22;20251;-85
2023/12/30 09:30:56;;;;;;;10.87;3.13;;;11.00;99.90;;;;;;6280799;22;20375;-85
2023/12/30 09:33:21;;;;;;;9.40;3.00;;;11.10;99.90;;;;;;6278336;22;20538;-85
2023/12/30 09:35:47;;;;;;;10.03;2.83;;;11.20;99.90;;;;;;6279785;22;20707;-85
2023/12/30 09:38:12;;;;;;;12.23;3.60;;;11.20;99.90;;;;;;6278326;22;20185;-85
2023/12/30 09:40:38;;;;;;;16.90;4.13;;;11.20;47.80;;;;;;6279406;22;20584;-85
2023/12/30 09:43:05;;;;;;;12.20;3.73;;;11.30;1.00;;;;;;6278619;22;20169;-89
2023/12/30 09:45:34;;;;;;;7.10;2.70;;;11.30;1.00;;;;;;6282414;22;20148;-85
2023/12/30 09:48:00;;;;;;;9.80;2.70;;;11.50;1.00;;;;;;6252868;22;20909;-85
2023/12/30 09:50:27;;;;;;;10.73;3.13;;;11.80;99.90;;;;;;6280004;22;20402;-88
2023/12/30 09:52:53;;;;;;;17.27;3.50;;;11.80;97.80;;;;;;6279747;22;20866;-85
2023/12/30 09:55:18;;;;;;;11.90;2.57;;;12.00;97.90;;;;;;6277997;22;20425;-86
2023/12/30 09:57:45;;;;;;;9.17;3.30;;;12.20;1.00;;;;;;6277427;22;20263;-85
2023/12/30 10:00:15;;;;;;;15.20;3.10;;;12.20;1.00;;;;;;6276260;22;20156;-90
2023/12/30 10:02:41;;;;;;;13.33;2.73;;;12.20;1.00;;;;;;6278545;22;20890;-86
2023/12/30 10:05:07;;;;;;;11.53;2.70;;;12.40;1.00;;;;;;6246861;22;20390;-85
2023/12/30 10:07:34;;;;;;;13.23;3.00;;;12.40;99.90;;;;;;6276243;22;20392;-86
2023/12/30 10:09:59;;;;;;;8.03;2.60;;;12.40;99.90;;;;;;6248853;22;20152;-84
2023/12/30 10:12:25;;;;;;;10.20;3.20;;;12.40;99.90;;;;;;6277797;22;20450;-85
2023/12/30 10:14:50;;;;;;;10.83;3.10;;;12.30;99.90;;;;;;6280628;22;20156;-83
2023/12/30 10:17:18;;;;;;;8.90;2.80;;;12.20;99.90;;;;;;6280854;22;20207;-82
2023/12/30 10:19:44;;;;;;;16.03;3.30;;;12.20;99.90;;;;;;6279816;22;20367;-84
2023/12/30 10:22:10;;;;;;;20.03;5.10;;;12.10;99.90;;;;;;6279167;22;20398;-83
2023/12/30 10:24:36;;;;;;;8.53;2.80;;;12.10;99.90;;;;;;6279440;22;20418;-86
2023/12/30 10:27:04;;;;;;;14.30;3.17;;;12.10;99.90;;;;;;6278737;22;20168;-84
2023/12/30 10:29:31;;;;;;;8.30;2.43;;;12.20;1.00;;;;;;6279866;22;20383;-84
2023/12/30 10:32:04;;;;;;;8.27;2.80;;;12.10;1.00;;;;;;6280792;22;20895;-83
2023/12/30 10:34:31;;;;;;;7.90;2.57;;;12.10;1.00;;;;;;6280204;22;20375;-83
2023/12/30 10:36:59;;;;;;;10.97;3.07;;;12.10;1.00;;;;;;6277841;22;21029;-84
2023/12/30 10:39:25;;;;;;;10.03;3.10;;;12.10;1.00;;;;;;6281435;22;20380;-82
2023/12/30 10:41:51;;;;;;;10.70;2.97;;;12.20;1.00;;;;;;6279576;22;20387;-81
2023/12/30 10:44:17;;;;;;;8.97;2.67;;;12.20;1.00;;;;;;6277838;22;20428;-85
2023/12/30 10:46:48;;;;;;;7.93;3.00;;;12.10;1.00;;;;;;6276901;22;20395;-84
2023/12/30 10:49:15;;;;;;;9.70;3.10;;;12.10;1.00;;;;;;6276806;22;20371;-84
2023/12/30 10:51:43;;;;;;;8.87;2.57;;;12.00;1.00;;;;;;6278123;22;20391;-84
2023/12/30 10:54:13;;;;;;;12.00;2.63;;;12.10;1.00;;;;;;6278467;22;20395;-83
2023/12/30 10:56:44;;;;;;;10.90;2.90;;;12.10;1.00;;;;;;6279401;22;20768;-84
2023/12/30 10:59:12;;;;;;;10.03;2.83;;;12.10;1.00;;;;;;6279300;22;20356;-82
2023/12/30 11:01:39;;;;;;;13.80;2.70;;;12.20;1.00;;;;;;6276309;22;20386;-84
2023/12/30 11:04:11;;;;;;;11.50;3.20;;;12.10;1.00;;;;;;6266820;22;20879;-82
2023/12/30 11:06:45;;;;;;;7.40;3.00;;;12.10;1.00;;;;;;6276860;22;20708;-82
2023/12/30 11:09:11;;;;;;;9.50;3.07;;;12.00;1.00;;;;;;6275995;22;20807;-82
2023/12/30 11:11:47;;;;;;;5.20;1.97;;;12.00;1.00;;;;;;6276901;22;20410;-82
2023/12/30 11:14:15;;;;;;;11.93;2.90;;;12.00;1.00;;;;;;6276806;22;20174;-82
2023/12/30 11:16:40;;;;;;;7.67;2.30;;;12.00;1.00;;;;;;6279891;22;20415;-83
2023/12/30 11:19:06;;;;;;;5.77;2.37;;;12.10;1.00;;;;;;6276514;22;20379;-82
2023/12/30 11:21:40;;;;;;;6.50;2.07;;;12.30;1.00;;;;;;6279262;22;20545;-81
2023/12/30 11:24:10;;;;;;;8.70;2.20;;;12.40;99.90;;;;;;6249359;22;20235;-83
2023/12/30 11:26:40;;;;;;;17.70;3.30;;;12.60;99.90;;;;;;6276934;22;20421;-82
2023/12/30 11:29:10;;;;;;;19.63;3.03;;;12.80;99.90;;;;;;6249070;22;20812;-81
2023/12/30 11:31:39;;;;;;;18.67;3.47;;;13.00;99.90;;;;;;6277399;22;20375;-82
2023/12/30 11:34:04;;;;;;;6.17;2.83;;;13.00;99.90;;;;;;6275895;22;20372;-82
2023/12/30 11:36:31;;;;;;;8.17;1.97;;;13.00;99.90;;;;;;6274557;22;20920;-83
2023/12/30 11:38:59;;;;;;;11.20;2.70;;;13.00;99.90;;;;;;6279860;22;20153;-82
2023/12/30 11:41:27;;;;;;;10.40;2.87;;;13.00;99.90;;;;;;6278939;22;20427;-81
2023/12/30 11:43:54;;;;;;;8.60;2.70;;;12.90;92.40;;;;;;6279637;22;20448;-82
2023/12/30 11:46:20;;;;;;;6.17;2.37;;;12.90;92.70;;;;;;6279511;22;20375;-83
2023/12/30 11:48:46;;;;;;;10.93;2.70;;;12.80;31.80;;;;;;6278497;22;20375;-84
2023/12/30 11:51:29;;;;;;;10.47;3.03;;;12.70;45.40;;;;;;6278363;22;20180;-83
2023/12/30 11:53:55;;;;;;;13.00;3.10;;;12.60;54.50;;;;;;6275166;22;20414;-82
2023/12/30 11:56:21;;;;;;;10.30;2.87;;;12.70;76.50;;;;;;6274691;22;20422;-82
2023/12/30 11:58:48;;;;;;;9.30;2.47;;;12.70;64.90;;;;;;6275814;22;20156;-82
2023/12/30 12:01:15;;;;;;;9.47;3.27;;;12.80;60.20;;;;;;6279474;22;20364;-82
2023/12/30 12:03:40;;;;;;;11.10;2.53;;;13.20;1.00;;;;;;6280305;22;20395;-84
2023/12/30 12:06:10;;;;;;;10.30;2.07;;;13.40;1.00;;;;;;6280769;22;20469;-81
2023/12/30 12:08:36;;;;;;;6.17;2.07;;;13.50;1.00;;;;;;6281757;22;20632;-84
2023/12/30 12:11:02;;;;;;;15.33;3.03;;;13.70;1.00;;;;;;6280397;22;20380;-84
2023/12/30 12:13:28;;;;;;;6.57;2.33;;;13.60;1.00;;;;;;6279732;22;20871;-80
2023/12/30 12:15:55;;;;;;;9.50;2.27;;;13.40;1.00;;;;;;6277833;22;20383;-81
2023/12/30 12:18:21;;;;;;;14.67;3.10;;;13.70;1.00;;;;;;6277838;22;20176;-80
2023/12/30 12:20:47;;;;;;;7.20;2.10;;;14.10;1.00;;;;;;6251448;22;20441;-80
2023/12/30 12:23:13;;;;;;;11.77;3.10;;;14.60;1.00;;;;;;6278019;22;20399;-81
2023/12/30 12:25:42;;;;;;;7.73;2.43;;;15.00;1.00;;;;;;6251492;22;20466;-80
2023/12/30 12:28:12;;;;;;;8.97;2.13;;;15.40;1.00;;;;;;6275723;22;20874;-81
2023/12/30 12:30:38;;;;;;;8.23;2.67;;;15.80;1.00;;;;;;6279798;22;20374;-82
2023/12/30 12:33:04;;;;;;;12.13;2.47;;;15.90;1.00;;;;;;6280984;22;20399;-81
2023/12/30 12:35:30;;;;;;;7.80;2.30;;;16.10;99.90;;;;;;6280551;22;20925;-82
2023/12/30 12:37:59;;;;;;;8.83;2.33;;;16.30;99.90;;;;;;6282703;22;20271;-83
2023/12/30 12:40:25;;;;;;;10.93;1.97;;;16.40;99.90;;;;;;6282562;22;20372;-81
2023/12/30 12:42:51;;;;;;;7.00;2.00;;;16.50;99.90;;;;;;6280520;22;20402;-81
2023/12/30 12:45:17;;;;;;;10.57;2.57;;;16.70;99.90;;;;;;6278722;22;20375;-84
2023/12/30 12:47:43;;;;;;;8.23;1.83;;;16.60;99.90;;;;;;6256190;22;20390;-84